sensor_id;sensor_type;location;lat;lon;timestamp;P1;durP1;ratioP1;P2;durP2;ratioP2
46633;SDS011;32362;49.986;8.026;2023-10-19T00:16:05;12.27;;;6.82;;
46633;SDS011;32362;49.986;8.026;2023-10-19T00:42:56;16.65;;;7.85;;
46633;SDS011;32362;49.986;8.026;2023-10-19T01:09:37;15.93;;;9.10;;
46633;SDS011;32362;49.986;8.026;2023-10-19T01:36:19;15.68;;;9.52;;
46633;SDS011;32362;49.986;8.026;2023-10-19T02:03:06;18.08;;;10.38;;
46633;SDS011;32362;49.986;8.026;2023-10-19T02:29:47;18.02;;;10.57;;
46633;SDS011;32362;49.986;8.026;2023-10-19T02:56:28;22.67;;;12.00;;
46633;SDS011;32362;49.986;8.026;2023-10-19T03:23:11;25.55;;;13.15;;
46633;SDS011;32362;49.986;8.026;2023-10-19T03:49:54;25.05;;;14.10;;
46633;SDS011;32362;49.986;8.026;2023-10-19T04:16:38;27.92;;;14.32;;
46633;SDS011;32362;49.986;8.026;2023-10-19T04:43:23;34.55;;;14.88;;
46633;SDS011;32362;49.986;8.026;2023-10-19T05:10:04;48.20;;;18.00;;
46633;SDS011;32362;49.986;8.026;2023-10-19T05:36:45;47.72;;;19.55;;
46633;SDS011;32362;49.986;8.026;2023-10-19T06:03:28;42.83;;;18.23;;
46633;SDS011;32362;49.986;8.026;2023-10-19T06:30:10;64.65;;;20.25;;
46633;SDS011;32362;49.986;8.026;2023-10-19T06:56:51;58.45;;;21.92;;
46633;SDS011;32362;49.986;8.026;2023-10-19T07:23:32;44.03;;;20.37;;
46633;SDS011;32362;49.986;8.026;2023-10-19T07:50:13;32.65;;;17.42;;
46633;SDS011;32362;49.986;8.026;2023-10-19T08:16:57;29.02;;;16.83;;
46633;SDS011;32362;49.986;8.026;2023-10-19T08:43:37;37.13;;;19.55;;
46633;SDS011;32362;49.986;8.026;2023-10-19T09:10:19;50.22;;;21.80;;
46633;SDS011;32362;49.986;8.026;2023-10-19T09:37:02;37.45;;;19.20;;
46633;SDS011;32362;49.986;8.026;2023-10-19T10:03:50;40.72;;;19.65;;
46633;SDS011;32362;49.986;8.026;2023-10-19T10:30:34;44.65;;;21.45;;
46633;SDS011;32362;49.986;8.026;2023-10-19T10:57:15;33.47;;;17.80;;
46633;SDS011;32362;49.986;8.026;2023-10-19T11:23:56;38.35;;;19.33;;
46633;SDS011;32362;49.986;8.026;2023-10-19T11:50:37;33.85;;;17.33;;
46633;SDS011;32362;49.986;8.026;2023-10-19T12:17:17;38.22;;;18.70;;
46633;SDS011;32362;49.986;8.026;2023-10-19T12:43:58;36.13;;;18.97;;
46633;SDS011;32362;49.986;8.026;2023-10-19T13:10:43;39.97;;;19.75;;
46633;SDS011;32362;49.986;8.026;2023-10-19T13:37:24;29.92;;;15.95;;
46633;SDS011;32362;49.986;8.026;2023-10-19T14:04:04;29.67;;;15.40;;
46633;SDS011;32362;49.986;8.026;2023-10-19T14:30:46;26.23;;;15.00;;
46633;SDS011;32362;49.986;8.026;2023-10-19T14:57:26;28.93;;;15.60;;
46633;SDS011;32362;49.986;8.026;2023-10-19T15:24:10;26.93;;;15.97;;
46633;SDS011;32362;49.986;8.026;2023-10-19T15:50:52;26.98;;;14.93;;
46633;SDS011;32362;49.986;8.026;2023-10-19T16:17:33;30.75;;;15.75;;
46633;SDS011;32362;49.986;8.026;2023-10-19T16:44:15;21.35;;;13.40;;
46633;SDS011;32362;49.986;8.026;2023-10-19T17:10:56;14.05;;;8.98;;
46633;SDS011;32362;49.986;8.026;2023-10-19T17:37:39;14.65;;;9.35;;
46633;SDS011;32362;49.986;8.026;2023-10-19T18:04:21;22.70;;;12.43;;
46633;SDS011;32362;49.986;8.026;2023-10-19T18:31:02;19.83;;;12.70;;
46633;SDS011;32362;49.986;8.026;2023-10-19T18:57:43;22.52;;;12.13;;
46633;SDS011;32362;49.986;8.026;2023-10-19T19:24:25;23.58;;;14.63;;
46633;SDS011;32362;49.986;8.026;2023-10-19T19:51:06;26.95;;;14.18;;
46633;SDS011;32362;49.986;8.026;2023-10-19T20:17:51;21.83;;;13.85;;
46633;SDS011;32362;49.986;8.026;2023-10-19T20:44:32;19.97;;;12.53;;
46633;SDS011;32362;49.986;8.026;2023-10-19T21:11:21;22.67;;;14.10;;
46633;SDS011;32362;49.986;8.026;2023-10-19T21:38:02;26.30;;;14.73;;
46633;SDS011;32362;49.986;8.026;2023-10-19T22:04:43;20.48;;;12.82;;
46633;SDS011;32362;49.986;8.026;2023-10-19T22:31:24;23.23;;;12.60;;
46633;SDS011;32362;49.986;8.026;2023-10-19T22:58:04;21.00;;;12.20;;
46633;SDS011;32362;49.986;8.026;2023-10-19T23:24:48;23.80;;;12.05;;
46633;SDS011;32362;49.986;8.026;2023-10-19T23:51:35;23.90;;;11.57;;
